SWR46E LIMC-LSZH
Flight info
| Callsign | SWR46E |
|---|---|
| Flight time | 0h 33m |
| Altitude | 30000 |
| Route | PEPAG DCT CANNE Z651 KELIP |
| Aircraft | E190/M-SDE3GILORVW/S |
Departure
| Time | 2026-04-26 13:04 |
|---|---|
| Airport | Milan Malpensa International Airport (LIMC) |
Arrival
| Time | 2026-04-26 13:38 |
|---|---|
| Airport | Zürich Airport (LSZH) |
| Time | Latitude | Longitude | Altitude | Speed | Heading |
|---|---|---|---|---|---|
| 2026-04-26 12:26 | 45.62544 | 8.71674 | 741 ft | 0 kts | 169° |
| 2026-04-26 12:54 | 45.62554 | 8.71672 | 741 ft | 2 kts | 171° |
| 2026-04-26 12:54 | 45.62569 | 8.71668 | 742 ft | 2 kts | 169° |
| 2026-04-26 12:55 | 45.62578 | 8.71666 | 742 ft | 2 kts | 168° |
| 2026-04-26 12:55 | 45.62592 | 8.71658 | 742 ft | 2 kts | 149° |
| 2026-04-26 12:55 | 45.62604 | 8.71645 | 742 ft | 2 kts | 133° |
| 2026-04-26 12:55 | 45.62613 | 8.71628 | 742 ft | 2 kts | 116° |
| 2026-04-26 12:56 | 45.62618 | 8.71608 | 743 ft | 2 kts | 100° |
| 2026-04-26 12:56 | 45.62618 | 8.71587 | 743 ft | 2 kts | 83° |
| 2026-04-26 12:56 | 45.62617 | 8.71579 | 743 ft | 0 kts | 79° |
| 2026-04-26 12:58 | 45.62626 | 8.71639 | 742 ft | 7 kts | 79° |
| 2026-04-26 12:58 | 45.62638 | 8.71729 | 740 ft | 11 kts | 79° |
| 2026-04-26 12:58 | 45.62656 | 8.71857 | 738 ft | 14 kts | 78° |
| 2026-04-26 12:58 | 45.62676 | 8.72005 | 735 ft | 11 kts | 78° |
| 2026-04-26 12:59 | 45.62677 | 8.72116 | 733 ft | 12 kts | 127° |
| 2026-04-26 12:59 | 45.62588 | 8.72158 | 732 ft | 14 kts | 169° |
| 2026-04-26 12:59 | 45.62486 | 8.72188 | 732 ft | 16 kts | 169° |
| 2026-04-26 12:59 | 45.62369 | 8.72220 | 731 ft | 17 kts | 169° |
| 2026-04-26 13:00 | 45.62246 | 8.72259 | 728 ft | 16 kts | 155° |
| 2026-04-26 13:00 | 45.62235 | 8.72397 | 726 ft | 16 kts | 78° |
| 2026-04-26 13:00 | 45.62259 | 8.72569 | 720 ft | 19 kts | 79° |
| 2026-04-26 13:00 | 45.62286 | 8.72773 | 716 ft | 21 kts | 79° |
| 2026-04-26 13:01 | 45.62311 | 8.72967 | 716 ft | 15 kts | 89° |
| 2026-04-26 13:01 | 45.62233 | 8.73041 | 713 ft | 15 kts | 169° |
| 2026-04-26 13:01 | 45.62118 | 8.73073 | 710 ft | 17 kts | 169° |
| 2026-04-26 13:01 | 45.61989 | 8.73108 | 707 ft | 19 kts | 169° |
| 2026-04-26 13:02 | 45.61845 | 8.73149 | 704 ft | 21 kts | 169° |
| 2026-04-26 13:02 | 45.61722 | 8.73252 | 699 ft | 21 kts | 124° |
| 2026-04-26 13:02 | 45.61634 | 8.73436 | 696 ft | 21 kts | 123° |
| 2026-04-26 13:02 | 45.61589 | 8.73627 | 695 ft | 20 kts | 88° |
| 2026-04-26 13:03 | 45.61633 | 8.73740 | 697 ft | 10 kts | 358° |
| 2026-04-26 13:03 | 45.61697 | 8.73721 | 698 ft | 9 kts | 349° |
| 2026-04-26 13:03 | 45.61824 | 8.73687 | 700 ft | 43 kts | 350° |
| 2026-04-26 13:03 | 45.62373 | 8.73536 | 711 ft | 112 kts | 350° |
| 2026-04-26 13:04 | 45.63329 | 8.73272 | 788 ft | 159 kts | 350° |
| 2026-04-26 13:04 | 45.64449 | 8.72967 | 1181 ft | 176 kts | 351° |
| 2026-04-26 13:04 | 45.65707 | 8.72697 | 1620 ft | 197 kts | 358° |
| 2026-04-26 13:04 | 45.67098 | 8.72745 | 2395 ft | 206 kts | 1° |
| 2026-04-26 13:05 | 45.68633 | 8.72797 | 2969 ft | 231 kts | 2° |
| 2026-04-26 13:05 | 45.70241 | 8.72866 | 3886 ft | 237 kts | 2° |
| 2026-04-26 13:05 | 45.71951 | 8.72926 | 4580 ft | 256 kts | 2° |
| 2026-04-26 13:05 | 45.73790 | 8.72982 | 5318 ft | 272 kts | 2° |
| 2026-04-26 13:06 | 45.75680 | 8.73034 | 6237 ft | 278 kts | 2° |
| 2026-04-26 13:06 | 45.77634 | 8.73086 | 7281 ft | 280 kts | 2° |
| 2026-04-26 13:06 | 45.79544 | 8.73136 | 8279 ft | 281 kts | 2° |
| 2026-04-26 13:06 | 45.81525 | 8.73187 | 9239 ft | 283 kts | 2° |
| 2026-04-26 13:07 | 45.83525 | 8.73239 | 10149 ft | 287 kts | 1° |
| 2026-04-26 13:07 | 45.85542 | 8.73291 | 10960 ft | 293 kts | 1° |
| 2026-04-26 13:07 | 45.87611 | 8.73344 | 11642 ft | 304 kts | 1° |
| 2026-04-26 13:07 | 45.89796 | 8.73401 | 12267 ft | 317 kts | 1° |
| 2026-04-26 13:08 | 45.92055 | 8.73459 | 12966 ft | 326 kts | 1° |
| 2026-04-26 13:08 | 45.94325 | 8.73518 | 13775 ft | 331 kts | 1° |
| 2026-04-26 13:08 | 45.96639 | 8.73578 | 14633 ft | 333 kts | 1° |
| 2026-04-26 13:08 | 45.98954 | 8.73638 | 15492 ft | 336 kts | 0° |
| 2026-04-26 13:09 | 46.01272 | 8.73741 | 16307 ft | 339 kts | 5° |
| 2026-04-26 13:09 | 46.03620 | 8.74087 | 17076 ft | 343 kts | 5° |
| 2026-04-26 13:09 | 46.06024 | 8.74416 | 17830 ft | 348 kts | 4° |
| 2026-04-26 13:09 | 46.08416 | 8.74731 | 18558 ft | 352 kts | 4° |
| 2026-04-26 13:10 | 46.10870 | 8.75049 | 19282 ft | 357 kts | 4° |
| 2026-04-26 13:10 | 46.13383 | 8.75374 | 19943 ft | 355 kts | 4° |
| 2026-04-26 13:10 | 46.15871 | 8.75693 | 20048 ft | 368 kts | 4° |
| 2026-04-26 13:10 | 46.18460 | 8.76026 | 20081 ft | 385 kts | 4° |
| 2026-04-26 13:11 | 46.21146 | 8.76373 | 20080 ft | 389 kts | 4° |
| 2026-04-26 13:11 | 46.23850 | 8.76722 | 20089 ft | 388 kts | 4° |
| 2026-04-26 13:11 | 46.26550 | 8.77071 | 20097 ft | 387 kts | 4° |
| 2026-04-26 13:11 | 46.29221 | 8.77416 | 20110 ft | 387 kts | 4° |
| 2026-04-26 13:12 | 46.31886 | 8.77761 | 20106 ft | 387 kts | 4° |
| 2026-04-26 13:12 | 46.34579 | 8.78110 | 20120 ft | 387 kts | 4° |
| 2026-04-26 13:12 | 46.37266 | 8.78458 | 20126 ft | 387 kts | 4° |
| 2026-04-26 13:12 | 46.39955 | 8.78807 | 20128 ft | 387 kts | 4° |
| 2026-04-26 13:13 | 46.42617 | 8.79153 | 20119 ft | 387 kts | 4° |
| 2026-04-26 13:13 | 46.45285 | 8.79500 | 20129 ft | 387 kts | 4° |
| 2026-04-26 13:13 | 46.47966 | 8.79849 | 20121 ft | 387 kts | 4° |
| 2026-04-26 13:13 | 46.50662 | 8.80200 | 20125 ft | 386 kts | 4° |
| 2026-04-26 13:14 | 46.53339 | 8.80549 | 20129 ft | 387 kts | 4° |
| 2026-04-26 13:14 | 46.55987 | 8.80895 | 20131 ft | 386 kts | 4° |
| 2026-04-26 13:14 | 46.58665 | 8.81245 | 20130 ft | 387 kts | 4° |
| 2026-04-26 13:14 | 46.61362 | 8.81376 | 20122 ft | 384 kts | 354° |
| 2026-04-26 13:15 | 46.63994 | 8.80992 | 20130 ft | 384 kts | 352° |
| 2026-04-26 13:15 | 46.66676 | 8.80583 | 20126 ft | 384 kts | 352° |
| 2026-04-26 13:15 | 46.69307 | 8.80184 | 20122 ft | 384 kts | 352° |
| 2026-04-26 13:15 | 46.71989 | 8.79776 | 20120 ft | 384 kts | 352° |
| 2026-04-26 13:16 | 46.74617 | 8.79376 | 20115 ft | 384 kts | 352° |
| 2026-04-26 13:16 | 46.77278 | 8.78972 | 20116 ft | 383 kts | 352° |
| 2026-04-26 13:16 | 46.79913 | 8.78570 | 20116 ft | 384 kts | 352° |
| 2026-04-26 13:16 | 46.82574 | 8.78164 | 20118 ft | 383 kts | 352° |
| 2026-04-26 13:17 | 46.87903 | 8.77350 | 20208 ft | 384 kts | 352° |
| 2026-04-26 13:17 | 46.90523 | 8.76949 | 20217 ft | 385 kts | 352° |
| 2026-04-26 13:18 | 46.95851 | 8.76132 | 20217 ft | 384 kts | 352° |
| 2026-04-26 13:18 | 46.98497 | 8.75714 | 20218 ft | 385 kts | 352° |
| 2026-04-26 13:18 | 47.03817 | 8.74872 | 20216 ft | 385 kts | 352° |
| 2026-04-26 13:19 | 47.06475 | 8.74451 | 20219 ft | 385 kts | 352° |
| 2026-04-26 13:19 | 47.09101 | 8.73821 | 20229 ft | 384 kts | 348° |
| 2026-04-26 13:19 | 47.11740 | 8.73119 | 20222 ft | 383 kts | 348° |
| 2026-04-26 13:19 | 47.14368 | 8.72425 | 20213 ft | 383 kts | 348° |
| 2026-04-26 13:20 | 47.16970 | 8.71739 | 20214 ft | 383 kts | 348° |
| 2026-04-26 13:20 | 47.19611 | 8.71043 | 20215 ft | 383 kts | 348° |
| 2026-04-26 13:20 | 47.22213 | 8.70357 | 20213 ft | 383 kts | 348° |
| 2026-04-26 13:20 | 47.24830 | 8.69666 | 20203 ft | 383 kts | 348° |
| 2026-04-26 13:21 | 47.27385 | 8.68747 | 20147 ft | 367 kts | 336° |
| 2026-04-26 13:21 | 47.28916 | 8.67754 | 19930 ft | 357 kts | 333° |
| 2026-04-26 13:21 | 47.31860 | 8.65740 | 19016 ft | 353 kts | 334° |
| 2026-04-26 13:21 | 47.34101 | 8.64206 | 18172 ft | 353 kts | 334° |
| 2026-04-26 13:22 | 47.36283 | 8.62683 | 17382 ft | 352 kts | 329° |
| 2026-04-26 13:22 | 47.38076 | 8.60344 | 16574 ft | 348 kts | 304° |
| 2026-04-26 13:22 | 47.39001 | 8.57064 | 15816 ft | 344 kts | 284° |
| 2026-04-26 13:22 | 47.39545 | 8.53685 | 15130 ft | 341 kts | 283° |
| 2026-04-26 13:23 | 47.40081 | 8.50303 | 14441 ft | 338 kts | 283° |
| 2026-04-26 13:23 | 47.40602 | 8.47006 | 14089 ft | 325 kts | 283° |
| 2026-04-26 13:23 | 47.41113 | 8.43766 | 13606 ft | 321 kts | 283° |
| 2026-04-26 13:23 | 47.41610 | 8.40614 | 13134 ft | 315 kts | 283° |
| 2026-04-26 13:24 | 47.42097 | 8.37513 | 12661 ft | 309 kts | 283° |
| 2026-04-26 13:24 | 47.42576 | 8.34458 | 12241 ft | 303 kts | 283° |
| 2026-04-26 13:24 | 47.43050 | 8.31412 | 12208 ft | 306 kts | 283° |
| 2026-04-26 13:24 | 47.43533 | 8.28307 | 12193 ft | 311 kts | 283° |
| 2026-04-26 13:25 | 47.44013 | 8.25205 | 12183 ft | 313 kts | 283° |
| 2026-04-26 13:25 | 47.44498 | 8.22068 | 12183 ft | 313 kts | 283° |
| 2026-04-26 13:25 | 47.44981 | 8.18940 | 12189 ft | 313 kts | 283° |
| 2026-04-26 13:25 | 47.45465 | 8.15799 | 12195 ft | 313 kts | 283° |
| 2026-04-26 13:26 | 47.45945 | 8.12684 | 12197 ft | 313 kts | 283° |
| 2026-04-26 13:26 | 47.46424 | 8.09551 | 12197 ft | 313 kts | 283° |
| 2026-04-26 13:26 | 47.46905 | 8.06405 | 12194 ft | 313 kts | 283° |
| 2026-04-26 13:26 | 47.47387 | 8.03271 | 12194 ft | 313 kts | 283° |
| 2026-04-26 13:27 | 47.47927 | 8.00248 | 12136 ft | 297 kts | 295° |
| 2026-04-26 13:27 | 47.49167 | 7.97951 | 11811 ft | 287 kts | 325° |
| 2026-04-26 13:27 | 47.51015 | 7.96962 | 11266 ft | 287 kts | 357° |
| 2026-04-26 13:27 | 47.52948 | 7.97592 | 10672 ft | 290 kts | 30° |
| 2026-04-26 13:28 | 47.54351 | 7.99650 | 10088 ft | 291 kts | 62° |
| 2026-04-26 13:28 | 47.54879 | 8.02497 | 9573 ft | 290 kts | 82° |
| 2026-04-26 13:28 | 47.55109 | 8.05424 | 9129 ft | 286 kts | 83° |
| 2026-04-26 13:28 | 47.55329 | 8.08321 | 8686 ft | 282 kts | 83° |
| 2026-04-26 13:29 | 47.55545 | 8.11177 | 8280 ft | 280 kts | 83° |
| 2026-04-26 13:29 | 47.55774 | 8.13067 | 8212 ft | 274 kts | 69° |
| 2026-04-26 13:29 | 47.57372 | 8.15666 | 8209 ft | 252 kts | 21° |
| 2026-04-26 13:29 | 47.59010 | 8.16086 | 8216 ft | 233 kts | 4° |
| 2026-04-26 13:30 | 47.60591 | 8.16191 | 8079 ft | 221 kts | 3° |
| 2026-04-26 13:30 | 47.62098 | 8.16284 | 7712 ft | 213 kts | 3° |
| 2026-04-26 13:30 | 47.63562 | 8.16372 | 7377 ft | 205 kts | 5° |
| 2026-04-26 13:30 | 47.64841 | 8.17103 | 7122 ft | 196 kts | 43° |
| 2026-04-26 13:31 | 47.65729 | 8.18600 | 6825 ft | 199 kts | 52° |
| 2026-04-26 13:31 | 47.66577 | 8.20253 | 6454 ft | 200 kts | 53° |
| 2026-04-26 13:31 | 47.67401 | 8.21901 | 6088 ft | 197 kts | 62° |
| 2026-04-26 13:31 | 47.67555 | 8.23791 | 6061 ft | 190 kts | 105° |
| 2026-04-26 13:32 | 47.67054 | 8.25626 | 6027 ft | 194 kts | 112° |
| 2026-04-26 13:32 | 47.66348 | 8.27366 | 6012 ft | 198 kts | 129° |
| 2026-04-26 13:32 | 47.65401 | 8.28835 | 5999 ft | 198 kts | 133° |
| 2026-04-26 13:32 | 47.64443 | 8.30240 | 6007 ft | 184 kts | 133° |
| 2026-04-26 13:33 | 47.63573 | 8.31502 | 5995 ft | 173 kts | 133° |
| 2026-04-26 13:33 | 47.62711 | 8.32749 | 5995 ft | 173 kts | 133° |
| 2026-04-26 13:33 | 47.61842 | 8.34007 | 6000 ft | 175 kts | 133° |
| 2026-04-26 13:33 | 47.60974 | 8.35264 | 5996 ft | 176 kts | 133° |
| 2026-04-26 13:34 | 47.60095 | 8.36540 | 5931 ft | 178 kts | 133° |
| 2026-04-26 13:34 | 47.59232 | 8.37856 | 5772 ft | 177 kts | 131° |
| 2026-04-26 13:34 | 47.58371 | 8.39150 | 5642 ft | 175 kts | 133° |
| 2026-04-26 13:34 | 47.57784 | 8.39987 | 5559 ft | 175 kts | 133° |
| 2026-04-26 13:35 | 47.56594 | 8.41653 | 5251 ft | 180 kts | 134° |
| 2026-04-26 13:35 | 47.55675 | 8.42920 | 4902 ft | 183 kts | 133° |
| 2026-04-26 13:35 | 47.54758 | 8.44239 | 4569 ft | 184 kts | 133° |
| 2026-04-26 13:35 | 47.53847 | 8.45561 | 4245 ft | 183 kts | 133° |
| 2026-04-26 13:36 | 47.52951 | 8.46801 | 3900 ft | 172 kts | 134° |
| 2026-04-26 13:36 | 47.52103 | 8.48011 | 3449 ft | 173 kts | 131° |
| 2026-04-26 13:36 | 47.51257 | 8.49285 | 2802 ft | 177 kts | 130° |
| 2026-04-26 13:36 | 47.50413 | 8.50580 | 2278 ft | 170 kts | 133° |
| 2026-04-26 13:37 | 47.49572 | 8.51709 | 1866 ft | 161 kts | 136° |
| 2026-04-26 13:37 | 47.48761 | 8.52818 | 1564 ft | 161 kts | 134° |
| 2026-04-26 13:37 | 47.47989 | 8.53894 | 1399 ft | 141 kts | 134° |
| 2026-04-26 13:37 | 47.47358 | 8.54787 | 1383 ft | 105 kts | 138° |
| 2026-04-26 13:38 | 47.46925 | 8.55364 | 1384 ft | 65 kts | 136° |
| 2026-04-26 13:38 | 47.46663 | 8.55654 | 1387 ft | 38 kts | 165° |
| 2026-04-26 13:38 | 47.46527 | 8.55698 | 1388 ft | 11 kts | 166° |
| 2026-04-26 13:38 | 47.46452 | 8.55724 | 1389 ft | 11 kts | 167° |
| 2026-04-26 13:39 | 47.46381 | 8.55761 | 1389 ft | 10 kts | 144° |
| 2026-04-26 13:39 | 47.46329 | 8.55830 | 1391 ft | 9 kts | 136° |
| 2026-04-26 13:39 | 47.46286 | 8.55888 | 1393 ft | 7 kts | 137° |
| 2026-04-26 13:39 | 47.46253 | 8.55933 | 1394 ft | 6 kts | 136° |
| 2026-04-26 13:40 | 47.46222 | 8.55976 | 1396 ft | 6 kts | 137° |
| 2026-04-26 13:40 | 47.46176 | 8.56003 | 1397 ft | 8 kts | 183° |
| 2026-04-26 13:40 | 47.46098 | 8.55990 | 1397 ft | 14 kts | 186° |
| 2026-04-26 13:40 | 47.45990 | 8.55972 | 1397 ft | 14 kts | 187° |
| 2026-04-26 13:41 | 47.45893 | 8.55929 | 1398 ft | 14 kts | 199° |
| 2026-04-26 13:41 | 47.45818 | 8.55890 | 1398 ft | 10 kts | 199° |
| 2026-04-26 13:41 | 47.45745 | 8.55872 | 1398 ft | 11 kts | 185° |
| 2026-04-26 13:41 | 47.45672 | 8.55861 | 1398 ft | 5 kts | 186° |
| 2026-04-26 13:42 | 47.45649 | 8.55857 | 1398 ft | 0 kts | 186° |
| 2026-04-26 13:42 | 47.45648 | 8.55857 | 1398 ft | 0 kts | 186° |
| 2026-04-26 13:42 | 47.45639 | 8.55855 | 1399 ft | 2 kts | 186° |
| 2026-04-26 13:42 | 47.45611 | 8.55850 | 1399 ft | 5 kts | 185° |
| 2026-04-26 13:43 | 47.45555 | 8.55842 | 1400 ft | 10 kts | 185° |
| 2026-04-26 13:43 | 47.45507 | 8.55779 | 1400 ft | 9 kts | 263° |
| 2026-04-26 13:43 | 47.45465 | 8.55752 | 1399 ft | 7 kts | 183° |
| 2026-04-26 13:43 | 47.45437 | 8.55748 | 1399 ft | 0 kts | 184° |
| 2026-04-26 13:44 | 47.45434 | 8.55748 | 1399 ft | 0 kts | 184° |